Time;durP1;ratioP1;P1;durP2;ratioP2;P2;SDS_P1;SDS_P2;PMS_P1;PMS_P2;Temp;Humidity;BMP_temperature;BMP_pressure;BME280_temperature;BME280_humidity;BME280_pressure;Samples;Min_cycle;Max_cycle;Signal;HPM_P1;HPM_P2
2021/09/08 00:01:13;;;;;;;;;398.50;355.00;;;;;;;;2779517;51;8844;-48
2021/09/08 00:03:39;;;;;;;;;400.00;359.25;;;;;;;;2779703;51;8763;-45
2021/09/08 00:06:05;;;;;;;;;440.75;374.25;;;;;;;;2779372;51;8781;-46
2021/09/08 00:08:30;;;;;;;;;427.75;381.75;;;;;;;;2779344;51;11533;-46
2021/09/08 00:10:56;;;;;;;;;428.75;378.00;;;;;;;;2779570;51;8925;-48
2021/09/08 00:13:22;;;;;;;;;394.25;350.75;;;;;;;;2779628;51;8771;-49
2021/09/08 00:15:48;;;;;;;;;410.00;371.75;;;;;;;;2779447;51;8774;-49
2021/09/08 00:18:14;;;;;;;;;395.80;355.80;;;;;;;;2779552;51;9443;-48
2021/09/08 00:20:40;;;;;;;;;387.40;351.20;;;;;;;;2779474;51;8762;-46
2021/09/08 00:23:06;;;;;;;;;426.40;365.60;;;;;;;;2779616;51;8857;-48
2021/09/08 00:25:31;;;;;;;;;412.60;357.40;;;;;;;;2779412;51;8766;-48
2021/09/08 00:27:57;;;;;;;;;401.80;354.00;;;;;;;;2779431;51;8778;-47
2021/09/08 00:30:23;;;;;;;;;401.00;337.20;;;;;;;;2779370;51;8797;-48
2021/09/08 00:32:49;;;;;;;;;413.60;359.00;;;;;;;;2779410;51;8777;-48
2021/09/08 00:35:15;;;;;;;;;403.67;343.67;;;;;;;;2779391;51;8781;-48
2021/09/08 00:37:41;;;;;;;;;364.33;322.33;;;;;;;;2779323;51;8775;-48
2021/09/08 00:40:08;;;;;;;;;367.40;329.60;;;;;;;;2779139;51;8766;-46
2021/09/08 00:42:34;;;;;;;;;359.00;315.25;;;;;;;;2779368;51;8775;-47
2021/09/08 00:45:00;;;;;;;;;348.00;316.67;;;;;;;;2779473;51;11628;-45
2021/09/08 00:47:26;;;;;;;;;346.67;305.33;;;;;;;;2779476;51;8774;-46
2021/09/08 00:49:52;;;;;;;;;421.25;359.00;;;;;;;;2779305;51;9446;-48
2021/09/08 00:52:18;;;;;;;;;408.00;359.00;;;;;;;;2779499;51;8774;-47
2021/09/08 00:54:47;;;;;;;;;402.75;345.25;;;;;;;;2779240;51;8810;-46
2021/09/08 00:57:14;;;;;;;;;403.00;354.00;;;;;;;;2779278;51;8779;-46
2021/09/08 00:59:40;;;;;;;;;401.20;350.80;;;;;;;;2779417;51;8767;-46
2021/09/08 01:02:06;;;;;;;;;401.00;346.80;;;;;;;;2779353;51;8797;-48
2021/09/08 01:04:32;;;;;;;;;395.50;340.50;;;;;;;;2779301;51;8763;-48
2021/09/08 01:06:58;;;;;;;;;389.25;342.50;;;;;;;;2779268;51;8799;-48
2021/09/08 01:09:24;;;;;;;;;387.40;340.40;;;;;;;;2779334;51;8755;-48
2021/09/08 01:11:50;;;;;;;;;373.60;327.40;;;;;;;;2779269;51;9505;-47
2021/09/08 01:14:16;;;;;;;;;353.50;311.50;;;;;;;;2779284;51;8763;-45
2021/09/08 01:16:42;;;;;;;;;370.25;331.00;;;;;;;;2779087;51;8775;-49
2021/09/08 01:19:08;;;;;;;;;369.00;323.25;;;;;;;;2779395;51;8774;-46
2021/09/08 01:21:33;;;;;;;;;354.33;312.33;;;;;;;;2779297;51;8750;-47
2021/09/08 01:24:03;;;;;;;;;373.50;330.75;;;;;;;;2779254;51;9459;-46
2021/09/08 01:26:29;;;;;;;;;363.25;316.25;;;;;;;;2779281;51;8766;-47
2021/09/08 01:28:54;;;;;;;;;339.75;313.25;;;;;;;;2779344;51;11521;-45
2021/09/08 01:31:20;;;;;;;;;375.00;321.33;;;;;;;;2779206;51;8785;-47
2021/09/08 01:33:46;;;;;;;;;345.00;307.50;;;;;;;;2779204;51;8773;-47
2021/09/08 01:36:12;;;;;;;;;358.75;301.50;;;;;;;;2779183;51;8888;-47
2021/09/08 01:38:38;;;;;;;;;353.00;311.00;;;;;;;;2779302;51;9414;-46
2021/09/08 01:41:03;;;;;;;;;356.00;308.33;;;;;;;;2779310;51;8770;-45
2021/09/08 01:43:29;;;;;;;;;346.00;305.33;;;;;;;;2779332;51;8793;-45
2021/09/08 01:45:55;;;;;;;;;338.67;304.67;;;;;;;;2779087;51;8888;-47
2021/09/08 01:48:21;;;;;;;;;329.00;281.33;;;;;;;;2779149;51;8771;-47
2021/09/08 01:50:47;;;;;;;;;339.67;296.00;;;;;;;;2779119;51;8805;-47
2021/09/08 01:53:13;;;;;;;;;350.33;300.00;;;;;;;;2779191;51;8871;-47
2021/09/08 01:55:39;;;;;;;;;343.33;306.33;;;;;;;;2779293;51;8774;-45
2021/09/08 01:58:04;;;;;;;;;331.33;295.00;;;;;;;;2778973;51;8900;-48
2021/09/08 02:00:30;;;;;;;;;322.00;288.67;;;;;;;;2779556;51;9372;-46
2021/09/08 02:02:56;;;;;;;;;298.67;273.33;;;;;;;;2779186;51;8774;-47
2021/09/08 02:05:22;;;;;;;;;315.00;275.25;;;;;;;;2778996;51;8766;-47
2021/09/08 02:07:48;;;;;;;;;315.75;282.75;;;;;;;;2779036;51;8782;-46
2021/09/08 02:10:14;;;;;;;;;314.75;277.50;;;;;;;;2779053;51;8774;-47
2021/09/08 02:12:42;;;;;;;;;292.50;257.25;;;;;;;;2778953;51;8868;-48
2021/09/08 02:15:08;;;;;;;;;320.00;277.25;;;;;;;;2779357;51;8782;-46
2021/09/08 02:17:34;;;;;;;;;303.50;258.00;;;;;;;;2778897;51;11550;-47
2021/09/08 02:20:00;;;;;;;;;300.00;264.50;;;;;;;;2778928;51;11534;-46
2021/09/08 02:22:26;;;;;;;;;307.00;275.50;;;;;;;;2779061;51;12282;-48
2021/09/08 02:24:51;;;;;;;;;303.75;258.50;;;;;;;;2779174;51;8759;-47
2021/09/08 02:27:17;;;;;;;;;293.00;259.75;;;;;;;;2778863;51;8797;-47
2021/09/08 02:29:43;;;;;;;;;285.75;265.00;;;;;;;;2779052;51;8903;-46
2021/09/08 02:32:09;;;;;;;;;277.25;252.75;;;;;;;;2779047;51;9435;-45
2021/09/08 02:34:35;;;;;;;;;282.75;257.25;;;;;;;;2778940;51;8766;-45
2021/09/08 02:37:00;;;;;;;;;275.00;245.75;;;;;;;;2778894;51;8770;-47
2021/09/08 02:39:26;;;;;;;;;262.75;240.00;;;;;;;;2779282;51;8759;-47
2021/09/08 02:41:52;;;;;;;;;285.75;250.25;;;;;;;;2778882;51;8800;-47
2021/09/08 02:44:18;;;;;;;;;271.00;236.25;;;;;;;;2778828;51;8788;-46
2021/09/08 02:46:44;;;;;;;;;267.25;240.00;;;;;;;;2778925;51;8778;-47
2021/09/08 02:49:10;;;;;;;;;268.50;243.00;;;;;;;;2778987;51;8840;-47
2021/09/08 02:51:36;;;;;;;;;282.25;251.00;;;;;;;;2779018;51;8747;-47
2021/09/08 02:54:02;;;;;;;;;265.00;233.00;;;;;;;;2778760;51;11496;-48
2021/09/08 02:56:28;;;;;;;;;251.50;228.75;;;;;;;;2778755;51;11519;-48
2021/09/08 02:58:54;;;;;;;;;262.75;231.75;;;;;;;;2778772;51;8783;-48
2021/09/08 03:01:20;;;;;;;;;260.50;230.75;;;;;;;;2778964;51;8778;-48
2021/09/08 03:03:45;;;;;;;;;240.75;217.00;;;;;;;;2778841;51;8905;-46
2021/09/08 03:06:11;;;;;;;;;229.50;205.00;;;;;;;;2779795;51;8779;-48
2021/09/08 03:08:37;;;;;;;;;240.50;218.50;;;;;;;;2779705;51;8778;-47
2021/09/08 03:11:03;;;;;;;;;221.25;204.75;;;;;;;;2779724;51;8770;-48
2021/09/08 03:13:29;;;;;;;;;234.75;213.00;;;;;;;;2779808;51;8881;-48
2021/09/08 03:15:55;;;;;;;;;231.75;206.00;;;;;;;;2779589;51;10828;-45
2021/09/08 03:18:21;;;;;;;;;235.25;209.00;;;;;;;;2779716;51;8797;-48
2021/09/08 03:20:47;;;;;;;;;243.00;210.75;;;;;;;;2779669;51;8872;-46
2021/09/08 03:23:13;;;;;;;;;236.00;215.00;;;;;;;;2779686;51;8808;-45
2021/09/08 03:25:38;;;;;;;;;236.50;210.25;;;;;;;;2779607;51;8779;-46
2021/09/08 03:28:06;;;;;;;;;236.00;213.00;;;;;;;;2779619;51;8758;-46
2021/09/08 03:30:32;;;;;;;;;225.75;205.00;;;;;;;;2779514;51;8885;-47
2021/09/08 03:32:58;;;;;;;;;216.50;196.75;;;;;;;;2779715;51;10150;-45
2021/09/08 03:35:24;;;;;;;;;234.50;201.75;;;;;;;;2779695;51;9751;-48
2021/09/08 03:37:50;;;;;;;;;226.00;198.00;;;;;;;;2779681;51;8782;-48
2021/09/08 03:40:16;;;;;;;;;223.25;200.00;;;;;;;;2779488;51;8787;-45
2021/09/08 03:42:42;;;;;;;;;213.00;196.00;;;;;;;;2779521;51;8770;-47
2021/09/08 03:45:08;;;;;;;;;232.33;199.67;;;;;;;;2779427;51;11522;-45
2021/09/08 03:47:34;;;;;;;;;209.67;195.67;;;;;;;;2779482;51;8758;-46
2021/09/08 03:50:00;;;;;;;;;213.33;193.33;;;;;;;;2779499;51;8922;-45
2021/09/08 03:52:26;;;;;;;;;213.00;188.33;;;;;;;;2779470;51;8782;-47
2021/09/08 03:54:51;;;;;;;;;219.00;190.33;;;;;;;;2779633;51;8890;-48
2021/09/08 03:57:17;;;;;;;;;196.67;176.33;;;;;;;;2779423;51;8893;-46
2021/09/08 03:59:44;;;;;;;;;211.33;187.00;;;;;;;;2779505;51;8789;-46
2021/09/08 04:02:09;;;;;;;;;203.33;186.00;;;;;;;;2779656;51;8788;-46
2021/09/08 04:04:35;;;;;;;;;189.67;168.67;;;;;;;;2779596;51;8861;-47
2021/09/08 04:07:01;;;;;;;;;197.00;179.33;;;;;;;;2779392;51;8774;-47
2021/09/08 04:09:27;;;;;;;;;199.67;180.67;;;;;;;;2779601;51;8778;-47
2021/09/08 04:11:53;;;;;;;;;197.67;178.00;;;;;;;;2779679;51;9381;-47
2021/09/08 04:14:19;;;;;;;;;202.00;179.67;;;;;;;;2779640;51;8795;-47
2021/09/08 04:16:45;;;;;;;;;181.33;168.67;;;;;;;;2779310;51;8771;-48
2021/09/08 04:19:10;;;;;;;;;192.00;170.33;;;;;;;;2779876;51;8779;-46
2021/09/08 04:21:36;;;;;;;;;192.00;173.67;;;;;;;;2779442;51;8762;-47
2021/09/08 04:24:02;;;;;;;;;173.33;160.33;;;;;;;;2779386;51;8900;-48
2021/09/08 04:26:28;;;;;;;;;185.00;162.67;;;;;;;;2779437;51;8803;-47
2021/09/08 04:28:54;;;;;;;;;184.67;166.67;;;;;;;;2779579;51;8774;-48
2021/09/08 04:31:20;;;;;;;;;188.00;168.00;;;;;;;;2779480;51;8785;-48
2021/09/08 04:33:45;;;;;;;;;180.00;162.33;;;;;;;;2779366;51;8794;-46
2021/09/08 04:36:11;;;;;;;;;175.67;161.00;;;;;;;;2779316;51;8789;-46
2021/09/08 04:38:37;;;;;;;;;177.00;161.33;;;;;;;;2779356;51;8782;-47
2021/09/08 04:41:03;;;;;;;;;185.75;156.50;;;;;;;;2779362;51;8770;-45
2021/09/08 04:43:29;;;;;;;;;181.00;164.33;;;;;;;;2779369;51;8754;-45
2021/09/08 04:45:55;;;;;;;;;169.00;152.00;;;;;;;;2779279;51;8778;-47
2021/09/08 04:48:21;;;;;;;;;180.50;156.00;;;;;;;;2779655;51;11215;-45
2021/09/08 04:50:47;;;;;;;;;160.75;143.00;;;;;;;;2779277;51;8798;-47
2021/09/08 04:53:13;;;;;;;;;172.67;150.33;;;;;;;;2779682;51;8770;-48
2021/09/08 04:55:39;;;;;;;;;157.20;147.00;;;;;;;;2779196;51;8893;-47
2021/09/08 04:58:06;;;;;;;;;170.67;152.67;;;;;;;;2778672;51;8759;-47
2021/09/08 05:00:32;;;;;;;;;165.40;143.80;;;;;;;;2779284;51;11693;-45
2021/09/08 05:02:57;;;;;;;;;160.50;144.50;;;;;;;;2779211;51;8841;-45
2021/09/08 05:05:23;;;;;;;;;155.75;137.75;;;;;;;;2779329;51;8784;-45
2021/09/08 05:07:49;;;;;;;;;167.00;149.25;;;;;;;;2779213;51;8779;-47
2021/09/08 05:10:15;;;;;;;;;160.50;143.75;;;;;;;;2779184;51;9497;-47
2021/09/08 05:12:41;;;;;;;;;161.50;141.50;;;;;;;;2779536;51;8790;-47
2021/09/08 05:15:07;;;;;;;;;145.50;134.00;;;;;;;;2779328;51;8858;-45
2021/09/08 05:17:33;;;;;;;;;161.20;139.80;;;;;;;;2779295;51;11534;-47
2021/09/08 05:19:59;;;;;;;;;157.50;139.25;;;;;;;;2779316;51;8851;-48
2021/09/08 05:22:25;;;;;;;;;143.50;132.75;;;;;;;;2779438;51;8763;-45
2021/09/08 05:24:50;;;;;;;;;146.50;135.00;;;;;;;;2779168;51;8763;-46
2021/09/08 05:27:16;;;;;;;;;150.25;133.75;;;;;;;;2779117;51;8770;-47
2021/09/08 05:29:42;;;;;;;;;145.25;131.25;;;;;;;;2779650;51;8777;-47
2021/09/08 05:32:08;;;;;;;;;151.50;140.75;;;;;;;;2779352;51;8782;-46
2021/09/08 05:34:34;;;;;;;;;143.50;130.75;;;;;;;;2779267;51;8758;-45
2021/09/08 05:37:00;;;;;;;;;150.50;132.50;;;;;;;;2779127;51;8789;-47
2021/09/08 05:39:25;;;;;;;;;153.25;132.50;;;;;;;;2779237;51;11529;-48
2021/09/08 05:41:51;;;;;;;;;139.50;120.50;;;;;;;;2779284;51;8792;-47
2021/09/08 05:44:17;;;;;;;;;141.50;128.50;;;;;;;;2779277;51;8782;-46
2021/09/08 05:46:43;;;;;;;;;140.75;129.50;;;;;;;;2779155;51;8759;-47
2021/09/08 05:49:09;;;;;;;;;144.00;128.50;;;;;;;;2779258;51;8762;-45
2021/09/08 05:51:35;;;;;;;;;139.25;122.50;;;;;;;;2778987;51;11651;-47
2021/09/08 05:54:01;;;;;;;;;129.25;118.25;;;;;;;;2779142;51;8759;-47
2021/09/08 05:56:27;;;;;;;;;133.00;122.20;;;;;;;;2779492;51;8773;-46
2021/09/08 05:58:52;;;;;;;;;142.00;122.75;;;;;;;;2779294;51;8786;-48
2021/09/08 06:01:18;;;;;;;;;132.75;117.00;;;;;;;;2779368;51;11556;-48
2021/09/08 06:03:44;;;;;;;;;127.75;112.50;;;;;;;;2779390;51;8766;-45
2021/09/08 06:06:10;;;;;;;;;127.00;114.50;;;;;;;;2779284;51;8789;-45
2021/09/08 06:08:36;;;;;;;;;123.00;109.00;;;;;;;;2779005;51;8767;-46
2021/09/08 06:11:02;;;;;;;;;114.25;101.25;;;;;;;;2779015;51;8783;-47
2021/09/08 06:13:27;;;;;;;;;125.00;114.00;;;;;;;;2778976;51;8813;-45
2021/09/08 06:15:53;;;;;;;;;136.50;115.25;;;;;;;;2778757;51;8766;-47
2021/09/08 06:18:19;;;;;;;;;132.75;116.00;;;;;;;;2779183;51;8782;-47
2021/09/08 06:20:45;;;;;;;;;130.75;117.75;;;;;;;;2779316;51;9446;-47
2021/09/08 06:23:11;;;;;;;;;126.25;115.75;;;;;;;;2779061;51;8771;-47
2021/09/08 06:25:38;;;;;;;;;129.20;114.80;;;;;;;;2778955;51;10467;-47
2021/09/08 06:28:04;;;;;;;;;120.60;111.40;;;;;;;;2778877;51;8766;-45
2021/09/08 06:30:29;;;;;;;;;118.50;109.25;;;;;;;;2779058;51;8886;-44
2021/09/08 06:32:55;;;;;;;;;122.25;105.25;;;;;;;;2779095;51;9959;-45
2021/09/08 06:35:21;;;;;;;;;124.75;109.75;;;;;;;;2778837;51;11547;-44
2021/09/08 06:37:47;;;;;;;;;124.00;111.00;;;;;;;;2778974;51;10966;-47
2021/09/08 06:40:14;;;;;;;;;117.00;108.50;;;;;;;;2779686;51;8785;-46
2021/09/08 06:42:40;;;;;;;;;113.00;100.00;;;;;;;;2779935;51;8782;-47
2021/09/08 06:45:06;;;;;;;;;118.00;109.00;;;;;;;;2779722;51;8766;-47
2021/09/08 06:47:32;;;;;;;;;121.00;106.60;;;;;;;;2779866;51;8970;-44
2021/09/08 06:49:57;;;;;;;;;113.75;99.00;;;;;;;;2779707;51;8889;-47
2021/09/08 06:52:23;;;;;;;;;115.25;101.75;;;;;;;;2779693;51;8885;-46
2021/09/08 06:54:49;;;;;;;;;116.50;103.25;;;;;;;;2779871;51;8786;-44
2021/09/08 06:57:16;;;;;;;;;112.75;99.50;;;;;;;;2779855;51;8898;-47
2021/09/08 06:59:43;;;;;;;;;116.40;105.20;;;;;;;;2780110;51;8786;-46
2021/09/08 07:02:09;;;;;;;;;106.40;98.00;;;;;;;;2779707;51;8743;-47
2021/09/08 07:04:35;;;;;;;;;107.25;98.00;;;;;;;;2779884;51;8747;-46
2021/09/08 07:07:00;;;;;;;;;115.50;103.75;;;;;;;;2779955;51;8766;-45
2021/09/08 07:09:26;;;;;;;;;110.50;101.50;;;;;;;;2779766;51;11535;-44
2021/09/08 07:11:52;;;;;;;;;106.00;97.50;;;;;;;;2779595;51;11516;-44
2021/09/08 07:14:18;;;;;;;;;111.75;99.75;;;;;;;;2779853;51;9733;-47
2021/09/08 07:16:44;;;;;;;;;100.50;93.00;;;;;;;;2779550;51;8754;-46
2021/09/08 07:19:10;;;;;;;;;103.60;96.20;;;;;;;;2779764;51;8771;-47
2021/09/08 07:21:36;;;;;;;;;104.75;98.00;;;;;;;;2779636;51;8774;-46
2021/09/08 07:24:02;;;;;;;;;103.00;90.25;;;;;;;;2779755;51;9003;-46
2021/09/08 07:26:33;;;;;;;;;107.20;95.00;;;;;;;;2779598;51;8778;-44
2021/09/08 07:29:03;;;;;;;;;107.00;93.80;;;;;;;;2779716;51;8772;-47
2021/09/08 07:31:29;;;;;;;;;103.80;92.40;;;;;;;;2779571;51;9426;-45
2021/09/08 07:33:55;;;;;;;;;95.50;89.75;;;;;;;;2779785;51;8781;-46
2021/09/08 07:36:21;;;;;;;;;101.00;91.40;;;;;;;;2779542;51;11468;-44
2021/09/08 07:38:47;;;;;;;;;97.00;93.00;;;;;;;;2779751;51;8789;-44
2021/09/08 07:41:14;;;;;;;;;101.50;92.00;;;;;;;;2779935;51;8781;-44
2021/09/08 07:43:40;;;;;;;;;98.80;89.00;;;;;;;;2779488;51;11531;-46
2021/09/08 07:46:06;;;;;;;;;98.25;89.75;;;;;;;;2779512;51;8770;-44
2021/09/08 07:48:31;;;;;;;;;96.00;86.00;;;;;;;;2779496;51;8783;-47
2021/09/08 07:50:57;;;;;;;;;92.00;83.50;;;;;;;;2779514;51;11526;-47
2021/09/08 07:53:23;;;;;;;;;93.25;84.75;;;;;;;;2779690;51;8843;-44
2021/09/08 07:55:49;;;;;;;;;94.50;83.50;;;;;;;;2779718;51;11526;-45
2021/09/08 07:58:15;;;;;;;;;78.50;75.00;;;;;;;;2779646;51;8771;-46
2021/09/08 08:00:41;;;;;;;;;93.25;84.75;;;;;;;;2779404;51;11579;-47
2021/09/08 08:03:07;;;;;;;;;97.00;84.75;;;;;;;;2779496;51;8770;-47
2021/09/08 08:05:33;;;;;;;;;84.75;77.00;;;;;;;;2779557;51;8771;-45
2021/09/08 08:07:59;;;;;;;;;87.40;79.80;;;;;;;;2779456;51;8762;-45
2021/09/08 08:10:25;;;;;;;;;84.60;77.40;;;;;;;;2779583;51;8767;-46
2021/09/08 08:12:51;;;;;;;;;86.00;76.60;;;;;;;;2779455;51;8771;-47
2021/09/08 08:15:17;;;;;;;;;86.50;73.00;;;;;;;;2779377;51;8763;-46
2021/09/08 08:17:43;;;;;;;;;87.20;78.40;;;;;;;;2779417;51;9475;-43
2021/09/08 08:20:10;;;;;;;;;79.20;69.60;;;;;;;;2779588;51;8774;-47
2021/09/08 08:22:36;;;;;;;;;45.75;36.00;;;;;;;;2779452;51;8851;-46
2021/09/08 08:25:03;;;;;;;;;54.75;44.50;;;;;;;;2779355;51;8766;-46
2021/09/08 08:27:28;;;;;;;;;71.00;57.50;;;;;;;;2778410;51;8885;-46
2021/09/08 08:29:54;;;;;;;;;66.50;52.25;;;;;;;;2779379;51;8746;-45
2021/09/08 08:32:20;;;;;;;;;79.50;69.00;;;;;;;;2779530;51;8839;-46
2021/09/08 08:34:46;;;;;;;;;92.75;83.00;;;;;;;;2779231;51;11514;-46
2021/09/08 08:37:12;;;;;;;;;179.00;161.00;;;;;;;;2779281;51;8775;-46
2021/09/08 08:39:38;;;;;;;;;186.33;165.67;;;;;;;;2779376;51;8796;-44
2021/09/08 08:42:13;;;;;;;;;171.75;154.50;;;;;;;;2779372;51;8758;-47
2021/09/08 08:44:39;;;;;;;;;172.50;153.50;;;;;;;;2777319;51;8802;-43
2021/09/08 08:47:05;;;;;;;;;161.50;145.75;;;;;;;;2774990;51;8741;-44
2021/09/08 08:49:32;;;;;;;;;159.25;143.75;;;;;;;;2777811;51;8746;-43
2021/09/08 08:51:58;;;;;;;;;153.60;139.00;;;;;;;;2779521;51;8896;-44
2021/09/08 08:54:24;;;;;;;;;133.25;120.25;;;;;;;;2773256;51;8773;-43
2021/09/08 08:56:52;;;;;;;;;157.25;142.00;;;;;;;;2773236;51;8791;-45
2021/09/08 08:59:19;;;;;;;;;154.00;143.00;;;;;;;;2773245;51;8785;-45
2021/09/08 09:01:45;;;;;;;;;146.60;135.80;;;;;;;;2777748;51;8781;-47
2021/09/08 09:04:13;;;;;;;;;133.20;119.80;;;;;;;;2779290;51;8774;-46
2021/09/08 09:06:41;;;;;;;;;142.20;129.80;;;;;;;;2779227;51;8798;-45
2021/09/08 09:09:09;;;;;;;;;124.40;112.80;;;;;;;;2779265;51;9423;-43
2021/09/08 09:11:35;;;;;;;;;139.60;124.40;;;;;;;;2779245;51;8754;-43
2021/09/08 09:14:05;;;;;;;;;209.33;187.67;;;;;;;;2779295;51;8865;-43
2021/09/08 09:16:32;;;;;;;;;215.75;192.25;;;;;;;;2779344;51;9508;-44
2021/09/08 09:18:58;;;;;;;;;231.25;198.75;;;;;;;;2775890;51;10241;-47
2021/09/08 09:21:24;;;;;;;;;202.25;186.00;;;;;;;;2773156;51;10089;-44
2021/09/08 09:23:54;;;;;;;;;210.33;186.33;;;;;;;;2773287;51;9567;-46
2021/09/08 09:26:24;;;;;;;;;183.00;162.25;;;;;;;;2773121;51;8946;-41
2021/09/08 09:28:50;;;;;;;;;190.50;170.00;;;;;;;;2773336;51;8769;-41
2021/09/08 09:31:18;;;;;;;;;188.25;167.50;;;;;;;;2773148;51;8761;-43
2021/09/08 09:33:45;;;;;;;;;193.25;172.00;;;;;;;;2773288;51;8766;-42
2021/09/08 09:36:14;;;;;;;;;186.00;166.00;;;;;;;;2778718;51;8795;-46
2021/09/08 09:38:40;;;;;;;;;197.25;171.25;;;;;;;;2779365;51;8775;-44
2021/09/08 09:41:06;;;;;;;;;265.00;237.75;;;;;;;;2779114;51;8908;-42
2021/09/08 09:43:32;;;;;;;;;299.75;259.75;;;;;;;;2779044;51;11506;-43
2021/09/08 09:46:05;;;;;;;;;266.75;234.25;;;;;;;;2779319;51;8877;-42
2021/09/08 09:48:30;;;;;;;;;265.25;237.00;;;;;;;;2779604;51;8751;-40
2021/09/08 09:50:56;;;;;;;;;254.00;221.25;;;;;;;;2779089;51;11496;-45
2021/09/08 09:53:22;;;;;;;;;234.25;209.75;;;;;;;;2779061;51;8932;-43
2021/09/08 09:55:48;;;;;;;;;239.75;215.00;;;;;;;;2779077;51;8782;-44
2021/09/08 09:58:14;;;;;;;;;220.00;190.00;;;;;;;;2779015;51;8767;-46
2021/09/08 10:00:41;;;;;;;;;202.75;200.25;;;;;;;;2778997;51;10163;-42
2021/09/08 10:03:07;;;;;;;;;232.00;198.75;;;;;;;;2779233;51;9955;-45
2021/09/08 10:05:33;;;;;;;;;209.00;191.00;;;;;;;;2779002;51;9995;-43
2021/09/08 10:07:59;;;;;;;;;221.67;195.33;;;;;;;;2779032;51;9724;-44
2021/09/08 10:10:29;;;;;;;;;250.50;223.75;;;;;;;;2779131;51;11534;-43
2021/09/08 10:13:01;;;;;;;;;243.25;210.75;;;;;;;;2778864;51;11559;-43
2021/09/08 10:15:27;;;;;;;;;216.00;191.00;;;;;;;;2779098;51;10780;-45
2021/09/08 10:17:53;;;;;;;;;218.75;195.25;;;;;;;;2779078;51;9837;-46
2021/09/08 10:20:21;;;;;;;;;202.00;180.33;;;;;;;;2778930;51;10000;-42
2021/09/08 10:22:47;;;;;;;;;184.75;169.50;;;;;;;;2779187;51;8773;-42
2021/09/08 10:25:14;;;;;;;;;184.00;161.50;;;;;;;;2779075;51;8758;-43
2021/09/08 10:27:41;;;;;;;;;167.75;145.50;;;;;;;;2778998;51;8766;-43
2021/09/08 10:30:08;;;;;;;;;166.00;147.75;;;;;;;;2779073;51;8865;-43
2021/09/08 10:32:35;;;;;;;;;181.75;158.00;;;;;;;;2778821;51;8986;-45
2021/09/08 10:35:09;;;;;;;;;177.75;159.75;;;;;;;;2778927;51;8778;-45
2021/09/08 10:37:35;;;;;;;;;185.25;166.50;;;;;;;;2778947;51;8881;-42
2021/09/08 10:40:01;;;;;;;;;286.50;252.75;;;;;;;;2778928;51;8842;-43
2021/09/08 10:42:46;;;;;;;;;367.80;314.60;;;;;;;;2778883;51;11028;-45
2021/09/08 10:45:18;;;;;;;;;335.00;297.00;;;;;;;;2778766;51;8762;-42
2021/09/08 10:47:44;;;;;;;;;295.75;263.75;;;;;;;;2778813;51;9386;-42
2021/09/08 10:50:10;;;;;;;;;257.00;228.75;;;;;;;;2778916;51;11563;-43
2021/09/08 10:52:36;;;;;;;;;279.75;244.50;;;;;;;;2778898;51;8865;-46
2021/09/08 10:55:02;;;;;;;;;252.50;227.00;;;;;;;;2778683;51;11554;-45
2021/09/08 10:57:47;;;;;;;;;247.00;227.25;;;;;;;;2778656;51;8926;-45
2021/09/08 11:00:13;;;;;;;;;272.00;231.00;;;;;;;;2778736;51;11537;-43
2021/09/08 11:02:40;;;;;;;;;298.00;260.50;;;;;;;;2779099;51;11536;-45
2021/09/08 11:05:06;;;;;;;;;346.33;307.33;;;;;;;;2778770;51;11682;-44
2021/09/08 11:07:32;;;;;;;;;355.50;311.75;;;;;;;;2778992;51;8853;-46
2021/09/08 20:30:04;;;;;;;;;367.75;314.25;;;;;;;;2806837;50;14136;-66
2021/09/08 20:32:30;;;;;;;;;306.00;264.50;;;;;;;;2789444;51;11100;-64
2021/09/08 20:34:56;;;;;;;;;242.50;215.75;;;;;;;;2789848;51;11465;-62
2021/09/08 20:37:21;;;;;;;;;113.00;94.00;;;;;;;;2784096;51;8766;-71
2021/09/08 20:39:47;;;;;;;;;75.00;56.00;;;;;;;;2783161;51;10043;-69
2021/09/08 20:42:13;;;;;;;;;44.33;36.67;;;;;;;;2777857;51;10705;-71
2021/09/08 20:44:39;;;;;;;;;30.00;28.33;;;;;;;;2783298;51;11582;-76
2021/09/08 20:47:05;;;;;;;;;30.00;26.00;;;;;;;;2784125;51;11404;-82
2021/09/08 20:49:30;;;;;;;;;23.20;21.20;;;;;;;;2778906;51;11425;-70
2021/09/08 20:51:56;;;;;;;;;18.00;17.00;;;;;;;;2782523;51;10192;-74
2021/09/08 20:54:22;;;;;;;;;14.00;14.00;;;;;;;;2783440;51;10101;-71
2021/09/08 20:56:48;;;;;;;;;16.25;14.25;;;;;;;;2781928;51;11362;-70
2021/09/08 20:59:14;;;;;;;;;18.50;18.00;;;;;;;;2781849;51;11422;-73
2021/09/08 21:01:40;;;;;;;;;18.40;16.20;;;;;;;;2783579;51;11364;-71
2021/09/08 21:04:06;;;;;;;;;19.50;18.25;;;;;;;;2784065;51;8758;-72
2021/09/08 21:06:32;;;;;;;;;18.75;17.75;;;;;;;;2782977;51;11345;-73
2021/09/08 21:08:59;;;;;;;;;16.60;16.60;;;;;;;;2783818;51;9711;-72
2021/09/08 21:11:24;;;;;;;;;18.80;17.80;;;;;;;;2783945;51;8765;-71
2021/09/08 21:13:50;;;;;;;;;15.50;15.50;;;;;;;;2783960;51;8850;-72
2021/09/08 21:16:16;;;;;;;;;17.50;16.50;;;;;;;;2777332;51;10553;-75
2021/09/08 21:18:42;;;;;;;;;16.00;16.00;;;;;;;;2784214;51;11476;-78
2021/09/08 21:21:08;;;;;;;;;17.60;17.00;;;;;;;;2778988;51;8750;-70
2021/09/08 21:23:34;;;;;;;;;13.20;13.20;;;;;;;;2783811;51;8768;-68
2021/09/08 21:26:00;;;;;;;;;18.25;17.25;;;;;;;;2782961;51;9886;-71
2021/09/08 21:28:26;;;;;;;;;20.00;17.20;;;;;;;;2783779;51;11087;-67
2021/09/08 21:30:52;;;;;;;;;17.00;16.60;;;;;;;;2783920;51;8769;-66
2021/09/08 21:33:18;;;;;;;;;18.25;17.75;;;;;;;;2783762;51;8766;-67
2021/09/08 21:35:44;;;;;;;;;18.75;17.25;;;;;;;;2783726;51;8780;-68
2021/09/08 21:38:09;;;;;;;;;20.20;20.00;;;;;;;;2784032;51;8868;-66
2021/09/08 21:40:35;;;;;;;;;16.40;16.40;;;;;;;;2781285;51;8864;-66
2021/09/08 21:43:02;;;;;;;;;18.00;18.00;;;;;;;;2780007;51;8872;-68
2021/09/08 21:45:28;;;;;;;;;17.50;17.00;;;;;;;;2774891;51;8758;-72
2021/09/08 21:47:57;;;;;;;;;15.00;15.00;;;;;;;;2779822;51;8757;-71
2021/09/08 21:50:24;;;;;;;;;19.60;19.60;;;;;;;;2779765;51;8778;-70
2021/09/08 21:52:50;;;;;;;;;15.40;15.40;;;;;;;;2779631;51;8887;-67
2021/09/08 21:55:16;;;;;;;;;15.00;15.00;;;;;;;;2779613;51;8757;-68
2021/09/08 21:57:42;;;;;;;;;15.60;15.60;;;;;;;;2780033;51;8774;-67
2021/09/08 22:00:10;;;;;;;;;15.00;15.00;;;;;;;;2779956;51;8765;-66
2021/09/08 22:02:36;;;;;;;;;19.20;19.20;;;;;;;;2779619;51;8761;-68
2021/09/08 22:05:01;;;;;;;;;18.00;17.00;;;;;;;;2779732;51;8768;-68
2021/09/08 22:07:27;;;;;;;;;16.25;16.25;;;;;;;;2774355;51;8745;-66
2021/09/08 22:09:52;;;;;;;;;21.50;18.00;;;;;;;;2779715;51;8793;-67
2021/09/08 22:12:18;;;;;;;;;18.25;18.00;;;;;;;;2779529;51;9025;-67
2021/09/08 22:14:44;;;;;;;;;18.00;18.00;;;;;;;;2779719;51;9370;-67
2021/09/08 22:17:09;;;;;;;;;19.50;17.75;;;;;;;;2779498;51;8870;-67
2021/09/08 22:19:35;;;;;;;;;21.00;19.25;;;;;;;;2779674;51;8769;-68
2021/09/08 22:22:00;;;;;;;;;20.50;17.75;;;;;;;;2779512;51;8761;-66
2021/09/08 22:24:26;;;;;;;;;21.25;20.25;;;;;;;;2779789;51;8842;-67
2021/09/08 22:26:52;;;;;;;;;19.75;18.00;;;;;;;;2779530;51;8777;-68
2021/09/08 22:29:17;;;;;;;;;21.25;20.50;;;;;;;;2779488;51;8786;-67
2021/09/08 22:31:43;;;;;;;;;22.33;22.00;;;;;;;;2779500;51;8762;-66
2021/09/08 22:34:08;;;;;;;;;20.25;18.75;;;;;;;;2779504;51;8777;-67
2021/09/08 22:36:34;;;;;;;;;23.67;23.33;;;;;;;;2779784;51;8785;-67
2021/09/08 22:39:00;;;;;;;;;22.00;21.00;;;;;;;;2779422;51;11396;-67
2021/09/08 22:41:25;;;;;;;;;25.00;23.67;;;;;;;;2779423;51;8771;-68
2021/09/08 22:43:51;;;;;;;;;27.67;22.67;;;;;;;;2779639;51;8790;-66
2021/09/08 22:46:17;;;;;;;;;25.67;22.00;;;;;;;;2779366;51;8761;-68
2021/09/08 22:48:43;;;;;;;;;22.67;21.67;;;;;;;;2779531;51;8789;-67
2021/09/08 22:51:08;;;;;;;;;21.67;21.67;;;;;;;;2779256;51;8766;-67
2021/09/08 22:53:34;;;;;;;;;17.25;17.25;;;;;;;;2779350;51;8774;-67
2021/09/08 22:56:01;;;;;;;;;21.50;21.00;;;;;;;;2779380;51;8773;-67
2021/09/08 22:58:27;;;;;;;;;21.50;20.50;;;;;;;;2779606;51;8750;-67
2021/09/08 23:00:53;;;;;;;;;22.75;18.50;;;;;;;;2779398;51;8773;-67
2021/09/08 23:03:18;;;;;;;;;18.50;18.00;;;;;;;;2779359;51;11444;-67
2021/09/08 23:05:44;;;;;;;;;21.25;20.00;;;;;;;;2774137;51;8793;-67
2021/09/08 23:08:10;;;;;;;;;19.00;18.50;;;;;;;;2779681;51;8812;-68
2021/09/08 23:10:36;;;;;;;;;20.50;20.25;;;;;;;;2779695;51;8870;-66
2021/09/08 23:13:02;;;;;;;;;23.00;21.00;;;;;;;;2779644;51;8757;-66
2021/09/08 23:15:27;;;;;;;;;19.50;19.00;;;;;;;;2779443;51;8765;-71
2021/09/08 23:17:53;;;;;;;;;24.33;20.33;;;;;;;;2779767;51;8761;-70
2021/09/08 23:20:19;;;;;;;;;24.75;22.25;;;;;;;;2779509;51;8876;-71
2021/09/08 23:22:45;;;;;;;;;18.33;18.33;;;;;;;;2779633;51;8766;-70